sensor_id;sensor_type;location;lat;lon;timestamp;temperature;humidity
5130;DHT22;2583;50.946;6.954;2023-02-11T00:01:09;8.40;95.50
5130;DHT22;2583;50.946;6.954;2023-02-11T00:03:36;8.50;95.30
5130;DHT22;2583;50.946;6.954;2023-02-11T00:06:06;8.40;94.70
5130;DHT22;2583;50.946;6.954;2023-02-11T00:08:37;8.50;94.70
5130;DHT22;2583;50.946;6.954;2023-02-11T00:11:04;8.50;94.20
5130;DHT22;2583;50.946;6.954;2023-02-11T00:13:31;8.40;94.90
5130;DHT22;2583;50.946;6.954;2023-02-11T00:15:58;8.40;95.40
5130;DHT22;2583;50.946;6.954;2023-02-11T00:18:24;8.30;95.80
5130;DHT22;2583;50.946;6.954;2023-02-11T00:20:52;8.40;95.60
5130;DHT22;2583;50.946;6.954;2023-02-11T00:23:19;8.40;95.30
5130;DHT22;2583;50.946;6.954;2023-02-11T00:25:45;8.30;95.40
5130;DHT22;2583;50.946;6.954;2023-02-11T00:28:12;8.40;95.80
5130;DHT22;2583;50.946;6.954;2023-02-11T00:30:39;8.40;95.30
5130;DHT22;2583;50.946;6.954;2023-02-11T00:33:07;8.30;95.60
5130;DHT22;2583;50.946;6.954;2023-02-11T00:35:36;8.40;96.00
5130;DHT22;2583;50.946;6.954;2023-02-11T00:38:04;8.30;96.10
5130;DHT22;2583;50.946;6.954;2023-02-11T00:40:31;8.30;96.60
5130;DHT22;2583;50.946;6.954;2023-02-11T00:43:00;8.20;96.90
5130;DHT22;2583;50.946;6.954;2023-02-11T00:45:28;8.30;97.10
5130;DHT22;2583;50.946;6.954;2023-02-11T00:47:56;8.30;97.10
5130;DHT22;2583;50.946;6.954;2023-02-11T00:50:23;8.20;97.40
5130;DHT22;2583;50.946;6.954;2023-02-11T00:52:50;8.20;98.10
5130;DHT22;2583;50.946;6.954;2023-02-11T00:55:16;8.20;98.00
5130;DHT22;2583;50.946;6.954;2023-02-11T00:57:43;8.10;98.50
5130;DHT22;2583;50.946;6.954;2023-02-11T01:00:11;8.10;98.60
5130;DHT22;2583;50.946;6.954;2023-02-11T01:02:38;8.10;98.90
5130;DHT22;2583;50.946;6.954;2023-02-11T01:05:06;8.10;99.00
5130;DHT22;2583;50.946;6.954;2023-02-11T01:07:33;8.10;99.50
5130;DHT22;2583;50.946;6.954;2023-02-11T01:10:00;8.00;99.60
5130;DHT22;2583;50.946;6.954;2023-02-11T01:12:27;8.00;99.90
5130;DHT22;2583;50.946;6.954;2023-02-11T01:14:54;7.90;99.90
5130;DHT22;2583;50.946;6.954;2023-02-11T01:17:21;7.90;99.90
5130;DHT22;2583;50.946;6.954;2023-02-11T01:19:47;7.80;99.90
5130;DHT22;2583;50.946;6.954;2023-02-11T01:22:14;7.80;99.90
5130;DHT22;2583;50.946;6.954;2023-02-11T01:24:41;7.70;99.90
5130;DHT22;2583;50.946;6.954;2023-02-11T01:27:08;7.70;99.90
5130;DHT22;2583;50.946;6.954;2023-02-11T01:29:34;7.80;99.90
5130;DHT22;2583;50.946;6.954;2023-02-11T01:32:01;7.70;99.90
5130;DHT22;2583;50.946;6.954;2023-02-11T01:34:28;7.70;99.90
5130;DHT22;2583;50.946;6.954;2023-02-11T01:36:58;7.70;99.90
5130;DHT22;2583;50.946;6.954;2023-02-11T01:39:26;7.80;99.90
5130;DHT22;2583;50.946;6.954;2023-02-11T01:41:53;7.70;99.90
5130;DHT22;2583;50.946;6.954;2023-02-11T01:44:22;7.70;99.90
5130;DHT22;2583;50.946;6.954;2023-02-11T01:46:49;7.60;99.90
5130;DHT22;2583;50.946;6.954;2023-02-11T01:49:26;7.70;99.90
5130;DHT22;2583;50.946;6.954;2023-02-11T01:51:59;7.70;99.90
5130;DHT22;2583;50.946;6.954;2023-02-11T01:54:32;7.70;99.90
5130;DHT22;2583;50.946;6.954;2023-02-11T01:57:23;7.70;99.90
5130;DHT22;2583;50.946;6.954;2023-02-11T02:02:25;7.60;99.90
5130;DHT22;2583;50.946;6.954;2023-02-11T02:04:59;7.70;99.90
5130;DHT22;2583;50.946;6.954;2023-02-11T02:07:35;7.70;99.90
5130;DHT22;2583;50.946;6.954;2023-02-11T02:10:09;7.70;99.90
5130;DHT22;2583;50.946;6.954;2023-02-11T02:12:37;7.80;99.90
5130;DHT22;2583;50.946;6.954;2023-02-11T02:15:33;7.80;99.90
5130;DHT22;2583;50.946;6.954;2023-02-11T02:24:02;7.70;99.90
5130;DHT22;2583;50.946;6.954;2023-02-11T02:41:05;7.50;99.90
5130;DHT22;2583;50.946;6.954;2023-02-11T02:43:35;7.60;99.90
5130;DHT22;2583;50.946;6.954;2023-02-11T02:48:37;7.50;99.90
5130;DHT22;2583;50.946;6.954;2023-02-11T02:51:14;7.40;99.90
5130;DHT22;2583;50.946;6.954;2023-02-11T03:02:09;7.20;99.90
5130;DHT22;2583;50.946;6.954;2023-02-11T03:10:28;7.10;99.90
5130;DHT22;2583;50.946;6.954;2023-02-11T03:12:56;7.10;99.90
5130;DHT22;2583;50.946;6.954;2023-02-11T03:15:26;7.10;99.90
5130;DHT22;2583;50.946;6.954;2023-02-11T03:17:57;7.10;99.90
5130;DHT22;2583;50.946;6.954;2023-02-11T03:20:27;7.10;99.90
5130;DHT22;2583;50.946;6.954;2023-02-11T03:23:15;7.10;99.90
5130;DHT22;2583;50.946;6.954;2023-02-11T03:25:52;7.20;99.90
5130;DHT22;2583;50.946;6.954;2023-02-11T03:28:36;7.20;99.90
5130;DHT22;2583;50.946;6.954;2023-02-11T03:33:58;7.10;99.90
5130;DHT22;2583;50.946;6.954;2023-02-11T03:36:51;7.10;99.90
5130;DHT22;2583;50.946;6.954;2023-02-11T03:39:24;7.10;99.90
5130;DHT22;2583;50.946;6.954;2023-02-11T03:41:55;7.10;99.90
5130;DHT22;2583;50.946;6.954;2023-02-11T03:44:28;7.20;99.90
5130;DHT22;2583;50.946;6.954;2023-02-11T03:46:57;7.20;99.90
5130;DHT22;2583;50.946;6.954;2023-02-11T03:49:26;7.20;99.90
5130;DHT22;2583;50.946;6.954;2023-02-11T03:51:55;7.10;99.90
5130;DHT22;2583;50.946;6.954;2023-02-11T03:54:27;7.10;99.90
5130;DHT22;2583;50.946;6.954;2023-02-11T03:56:57;7.10;99.90
5130;DHT22;2583;50.946;6.954;2023-02-11T03:59:25;7.10;99.90
5130;DHT22;2583;50.946;6.954;2023-02-11T04:01:52;7.20;99.90
5130;DHT22;2583;50.946;6.954;2023-02-11T04:04:19;7.10;99.90
5130;DHT22;2583;50.946;6.954;2023-02-11T04:06:46;7.10;99.90
5130;DHT22;2583;50.946;6.954;2023-02-11T04:09:12;7.10;99.90
5130;DHT22;2583;50.946;6.954;2023-02-11T04:11:40;7.20;99.90
5130;DHT22;2583;50.946;6.954;2023-02-11T04:14:07;7.20;99.90
5130;DHT22;2583;50.946;6.954;2023-02-11T04:16:34;7.20;99.90
5130;DHT22;2583;50.946;6.954;2023-02-11T04:19:00;7.20;99.90
5130;DHT22;2583;50.946;6.954;2023-02-11T04:21:27;7.30;99.90
5130;DHT22;2583;50.946;6.954;2023-02-11T04:23:54;7.40;99.90
5130;DHT22;2583;50.946;6.954;2023-02-11T04:26:21;7.30;99.90
5130;DHT22;2583;50.946;6.954;2023-02-11T04:28:48;7.30;99.90
5130;DHT22;2583;50.946;6.954;2023-02-11T04:31:14;7.30;99.90
5130;DHT22;2583;50.946;6.954;2023-02-11T04:33:41;7.40;99.90
5130;DHT22;2583;50.946;6.954;2023-02-11T04:36:08;7.40;99.90
5130;DHT22;2583;50.946;6.954;2023-02-11T04:38:35;7.40;99.90
5130;DHT22;2583;50.946;6.954;2023-02-11T04:41:02;7.30;99.90
5130;DHT22;2583;50.946;6.954;2023-02-11T04:43:29;7.30;99.90
5130;DHT22;2583;50.946;6.954;2023-02-11T04:45:56;7.30;99.90
5130;DHT22;2583;50.946;6.954;2023-02-11T04:48:24;7.30;99.90
5130;DHT22;2583;50.946;6.954;2023-02-11T04:50:51;7.40;99.90
5130;DHT22;2583;50.946;6.954;2023-02-11T04:53:18;7.40;99.90
5130;DHT22;2583;50.946;6.954;2023-02-11T04:55:48;7.50;99.90
5130;DHT22;2583;50.946;6.954;2023-02-11T04:58:17;7.50;99.90
5130;DHT22;2583;50.946;6.954;2023-02-11T05:00:44;7.50;99.90
5130;DHT22;2583;50.946;6.954;2023-02-11T05:03:12;7.50;99.90
5130;DHT22;2583;50.946;6.954;2023-02-11T05:05:40;7.50;99.90
5130;DHT22;2583;50.946;6.954;2023-02-11T05:08:08;7.50;99.90
5130;DHT22;2583;50.946;6.954;2023-02-11T05:10:36;7.40;99.90
5130;DHT22;2583;50.946;6.954;2023-02-11T05:13:03;7.40;99.90
5130;DHT22;2583;50.946;6.954;2023-02-11T05:15:30;7.50;99.90
5130;DHT22;2583;50.946;6.954;2023-02-11T05:17:57;7.40;99.90
5130;DHT22;2583;50.946;6.954;2023-02-11T05:20:24;7.40;99.90
5130;DHT22;2583;50.946;6.954;2023-02-11T05:22:50;7.30;99.90
5130;DHT22;2583;50.946;6.954;2023-02-11T05:25:18;7.40;99.90
5130;DHT22;2583;50.946;6.954;2023-02-11T05:27:46;7.40;99.90
5130;DHT22;2583;50.946;6.954;2023-02-11T05:30:13;7.40;99.90
5130;DHT22;2583;50.946;6.954;2023-02-11T05:32:40;7.40;99.90
5130;DHT22;2583;50.946;6.954;2023-02-11T05:35:07;7.50;99.90
5130;DHT22;2583;50.946;6.954;2023-02-11T05:37:35;7.50;99.90
5130;DHT22;2583;50.946;6.954;2023-02-11T05:40:01;7.50;99.90
5130;DHT22;2583;50.946;6.954;2023-02-11T05:42:28;7.40;99.90
5130;DHT22;2583;50.946;6.954;2023-02-11T05:44:55;7.40;99.90
5130;DHT22;2583;50.946;6.954;2023-02-11T05:47:22;7.40;99.90
5130;DHT22;2583;50.946;6.954;2023-02-11T05:49:49;7.40;99.90
5130;DHT22;2583;50.946;6.954;2023-02-11T05:52:16;7.40;99.90
5130;DHT22;2583;50.946;6.954;2023-02-11T05:54:43;7.40;99.90
5130;DHT22;2583;50.946;6.954;2023-02-11T05:57:10;7.40;99.90
5130;DHT22;2583;50.946;6.954;2023-02-11T05:59:37;7.40;99.90
5130;DHT22;2583;50.946;6.954;2023-02-11T06:02:04;7.40;99.90
5130;DHT22;2583;50.946;6.954;2023-02-11T06:04:34;7.40;99.90
5130;DHT22;2583;50.946;6.954;2023-02-11T06:07:01;7.40;99.90
5130;DHT22;2583;50.946;6.954;2023-02-11T06:09:28;7.40;99.90
5130;DHT22;2583;50.946;6.954;2023-02-11T06:11:55;7.40;99.90
5130;DHT22;2583;50.946;6.954;2023-02-11T06:14:22;7.40;99.90
5130;DHT22;2583;50.946;6.954;2023-02-11T06:16:49;7.30;99.90
5130;DHT22;2583;50.946;6.954;2023-02-11T06:19:16;7.30;99.90
5130;DHT22;2583;50.946;6.954;2023-02-11T06:21:42;7.30;99.90
5130;DHT22;2583;50.946;6.954;2023-02-11T06:24:10;7.30;99.90
5130;DHT22;2583;50.946;6.954;2023-02-11T06:26:37;7.30;99.90
5130;DHT22;2583;50.946;6.954;2023-02-11T06:29:04;7.40;99.90
5130;DHT22;2583;50.946;6.954;2023-02-11T06:31:31;7.30;99.90
5130;DHT22;2583;50.946;6.954;2023-02-11T06:33:58;7.30;99.90
5130;DHT22;2583;50.946;6.954;2023-02-11T06:36:25;7.20;99.90
5130;DHT22;2583;50.946;6.954;2023-02-11T06:38:52;7.30;99.90
5130;DHT22;2583;50.946;6.954;2023-02-11T06:41:19;7.40;99.90
5130;DHT22;2583;50.946;6.954;2023-02-11T06:43:46;7.40;99.90
5130;DHT22;2583;50.946;6.954;2023-02-11T06:46:13;7.40;99.90
5130;DHT22;2583;50.946;6.954;2023-02-11T06:48:40;7.40;99.90
5130;DHT22;2583;50.946;6.954;2023-02-11T06:51:11;7.50;99.90
5130;DHT22;2583;50.946;6.954;2023-02-11T06:53:41;7.50;99.90
5130;DHT22;2583;50.946;6.954;2023-02-11T06:56:14;7.40;99.90
5130;DHT22;2583;50.946;6.954;2023-02-11T06:58:41;7.50;99.90
5130;DHT22;2583;50.946;6.954;2023-02-11T07:01:10;7.50;99.90
5130;DHT22;2583;50.946;6.954;2023-02-11T07:03:39;7.50;99.90
5130;DHT22;2583;50.946;6.954;2023-02-11T07:06:07;7.50;99.90
5130;DHT22;2583;50.946;6.954;2023-02-11T07:08:35;7.50;99.90
5130;DHT22;2583;50.946;6.954;2023-02-11T07:11:10;7.40;99.90
5130;DHT22;2583;50.946;6.954;2023-02-11T07:13:38;7.30;99.90
5130;DHT22;2583;50.946;6.954;2023-02-11T07:16:06;7.40;99.90
5130;DHT22;2583;50.946;6.954;2023-02-11T07:18:33;7.40;99.90
5130;DHT22;2583;50.946;6.954;2023-02-11T07:21:06;7.40;99.90
5130;DHT22;2583;50.946;6.954;2023-02-11T07:23:34;7.40;99.90
5130;DHT22;2583;50.946;6.954;2023-02-11T07:26:03;7.30;99.90
5130;DHT22;2583;50.946;6.954;2023-02-11T07:28:31;7.30;99.90
5130;DHT22;2583;50.946;6.954;2023-02-11T07:31:04;7.30;99.90
5130;DHT22;2583;50.946;6.954;2023-02-11T07:33:31;7.40;99.90
5130;DHT22;2583;50.946;6.954;2023-02-11T07:35:59;7.40;99.90
5130;DHT22;2583;50.946;6.954;2023-02-11T07:38:27;7.40;99.90
5130;DHT22;2583;50.946;6.954;2023-02-11T07:40:53;7.40;99.90
5130;DHT22;2583;50.946;6.954;2023-02-11T07:43:20;7.40;99.90
5130;DHT22;2583;50.946;6.954;2023-02-11T07:45:47;7.30;99.90
5130;DHT22;2583;50.946;6.954;2023-02-11T07:48:14;7.40;99.90
5130;DHT22;2583;50.946;6.954;2023-02-11T07:50:41;7.40;99.90
5130;DHT22;2583;50.946;6.954;2023-02-11T07:53:07;7.50;99.90
5130;DHT22;2583;50.946;6.954;2023-02-11T07:55:34;7.50;99.90
5130;DHT22;2583;50.946;6.954;2023-02-11T07:58:01;7.50;99.90
5130;DHT22;2583;50.946;6.954;2023-02-11T08:00:28;7.50;99.90
5130;DHT22;2583;50.946;6.954;2023-02-11T08:02:56;7.50;99.90
5130;DHT22;2583;50.946;6.954;2023-02-11T08:05:23;7.40;99.90
5130;DHT22;2583;50.946;6.954;2023-02-11T08:07:51;7.40;99.90
5130;DHT22;2583;50.946;6.954;2023-02-11T08:10:18;7.40;99.90
5130;DHT22;2583;50.946;6.954;2023-02-11T08:12:45;7.40;99.90
5130;DHT22;2583;50.946;6.954;2023-02-11T08:15:12;7.40;99.90
5130;DHT22;2583;50.946;6.954;2023-02-11T08:17:39;7.40;99.90
5130;DHT22;2583;50.946;6.954;2023-02-11T08:20:06;7.50;99.90
5130;DHT22;2583;50.946;6.954;2023-02-11T08:22:33;7.50;99.90
5130;DHT22;2583;50.946;6.954;2023-02-11T08:25:00;7.50;99.90
5130;DHT22;2583;50.946;6.954;2023-02-11T08:27:27;7.40;99.90
5130;DHT22;2583;50.946;6.954;2023-02-11T08:29:55;7.50;99.90
5130;DHT22;2583;50.946;6.954;2023-02-11T08:32:22;7.50;99.90
5130;DHT22;2583;50.946;6.954;2023-02-11T08:34:51;7.50;99.90
5130;DHT22;2583;50.946;6.954;2023-02-11T08:37:18;7.50;99.90
5130;DHT22;2583;50.946;6.954;2023-02-11T08:39:45;7.50;99.90
5130;DHT22;2583;50.946;6.954;2023-02-11T08:42:13;7.60;99.90
5130;DHT22;2583;50.946;6.954;2023-02-11T08:44:41;7.50;99.90
5130;DHT22;2583;50.946;6.954;2023-02-11T08:47:08;7.50;99.90
5130;DHT22;2583;50.946;6.954;2023-02-11T08:49:35;7.50;99.90
5130;DHT22;2583;50.946;6.954;2023-02-11T08:52:02;7.50;99.90
5130;DHT22;2583;50.946;6.954;2023-02-11T08:54:30;7.50;99.90
5130;DHT22;2583;50.946;6.954;2023-02-11T08:56:57;7.60;99.90
5130;DHT22;2583;50.946;6.954;2023-02-11T08:59:24;7.60;99.90
5130;DHT22;2583;50.946;6.954;2023-02-11T09:01:50;7.60;99.90
5130;DHT22;2583;50.946;6.954;2023-02-11T09:04:18;7.70;99.90
5130;DHT22;2583;50.946;6.954;2023-02-11T09:06:45;7.70;99.90
5130;DHT22;2583;50.946;6.954;2023-02-11T09:09:13;7.70;99.90
5130;DHT22;2583;50.946;6.954;2023-02-11T09:11:42;7.70;99.90
5130;DHT22;2583;50.946;6.954;2023-02-11T09:14:20;7.70;99.90
5130;DHT22;2583;50.946;6.954;2023-02-11T09:16:48;7.60;99.90
5130;DHT22;2583;50.946;6.954;2023-02-11T09:19:16;7.60;99.90
5130;DHT22;2583;50.946;6.954;2023-02-11T09:21:43;7.60;99.90
5130;DHT22;2583;50.946;6.954;2023-02-11T09:24:10;7.50;99.90
5130;DHT22;2583;50.946;6.954;2023-02-11T09:26:40;7.60;99.90
5130;DHT22;2583;50.946;6.954;2023-02-11T09:29:07;7.60;99.90
5130;DHT22;2583;50.946;6.954;2023-02-11T09:31:34;7.60;99.90
5130;DHT22;2583;50.946;6.954;2023-02-11T09:34:03;7.70;99.90
5130;DHT22;2583;50.946;6.954;2023-02-11T09:36:34;7.60;99.90
5130;DHT22;2583;50.946;6.954;2023-02-11T09:39:04;7.60;99.90
5130;DHT22;2583;50.946;6.954;2023-02-11T09:41:38;7.70;99.90
5130;DHT22;2583;50.946;6.954;2023-02-11T09:44:09;7.80;99.90
5130;DHT22;2583;50.946;6.954;2023-02-11T09:46:52;7.80;99.90
5130;DHT22;2583;50.946;6.954;2023-02-11T09:49:23;7.70;99.90
5130;DHT22;2583;50.946;6.954;2023-02-11T09:52:15;7.60;99.90
5130;DHT22;2583;50.946;6.954;2023-02-11T09:54:55;7.70;99.90
5130;DHT22;2583;50.946;6.954;2023-02-11T09:57:27;7.60;99.90
5130;DHT22;2583;50.946;6.954;2023-02-11T09:59:57;7.60;99.90
5130;DHT22;2583;50.946;6.954;2023-02-11T10:02:31;7.70;99.90
5130;DHT22;2583;50.946;6.954;2023-02-11T10:05:16;7.60;99.90
5130;DHT22;2583;50.946;6.954;2023-02-11T10:08:19;7.70;99.90
5130;DHT22;2583;50.946;6.954;2023-02-11T10:11:03;7.60;99.90
5130;DHT22;2583;50.946;6.954;2023-02-11T10:13:46;7.80;99.90
5130;DHT22;2583;50.946;6.954;2023-02-11T10:21:58;7.90;99.90
5130;DHT22;2583;50.946;6.954;2023-02-11T10:24:32;8.00;99.90
5130;DHT22;2583;50.946;6.954;2023-02-11T10:27:01;8.10;99.90
5130;DHT22;2583;50.946;6.954;2023-02-11T10:29:39;8.00;99.90
5130;DHT22;2583;50.946;6.954;2023-02-11T10:32:16;7.90;99.90
5130;DHT22;2583;50.946;6.954;2023-02-11T10:34:48;8.00;99.90
5130;DHT22;2583;50.946;6.954;2023-02-11T10:37:15;7.90;99.90
5130;DHT22;2583;50.946;6.954;2023-02-11T10:39:42;7.90;99.90
5130;DHT22;2583;50.946;6.954;2023-02-11T10:42:11;7.90;99.90
5130;DHT22;2583;50.946;6.954;2023-02-11T10:44:42;8.00;99.90
5130;DHT22;2583;50.946;6.954;2023-02-11T10:47:19;8.00;99.90
5130;DHT22;2583;50.946;6.954;2023-02-11T10:49:47;8.00;99.90
5130;DHT22;2583;50.946;6.954;2023-02-11T10:52:19;8.00;99.90
5130;DHT22;2583;50.946;6.954;2023-02-11T10:57:34;8.00;99.90
5130;DHT22;2583;50.946;6.954;2023-02-11T11:00:07;8.10;99.90
5130;DHT22;2583;50.946;6.954;2023-02-11T11:02:35;8.20;99.90
5130;DHT22;2583;50.946;6.954;2023-02-11T11:05:28;8.20;99.90
5130;DHT22;2583;50.946;6.954;2023-02-11T11:08:06;8.10;99.90
5130;DHT22;2583;50.946;6.954;2023-02-11T11:10:38;8.10;99.90
5130;DHT22;2583;50.946;6.954;2023-02-11T11:16:16;8.20;99.90
5130;DHT22;2583;50.946;6.954;2023-02-11T11:18:48;8.20;99.90
5130;DHT22;2583;50.946;6.954;2023-02-11T11:21:25;8.30;99.90
5130;DHT22;2583;50.946;6.954;2023-02-11T11:23:58;8.20;99.90
5130;DHT22;2583;50.946;6.954;2023-02-11T11:26:40;8.20;99.90
5130;DHT22;2583;50.946;6.954;2023-02-11T11:32:33;8.40;99.90
5130;DHT22;2583;50.946;6.954;2023-02-11T11:35:07;8.50;99.90
5130;DHT22;2583;50.946;6.954;2023-02-11T11:37:52;8.40;99.90
5130;DHT22;2583;50.946;6.954;2023-02-11T11:40:30;8.40;99.90
5130;DHT22;2583;50.946;6.954;2023-02-11T11:45:38;8.30;99.90
5130;DHT22;2583;50.946;6.954;2023-02-11T11:48:39;8.30;99.90
5130;DHT22;2583;50.946;6.954;2023-02-11T11:51:10;8.30;99.90
5130;DHT22;2583;50.946;6.954;2023-02-11T11:54:20;8.40;99.90
5130;DHT22;2583;50.946;6.954;2023-02-11T11:56:36;8.40;99.90
5130;DHT22;2583;50.946;6.954;2023-02-11T11:59:13;8.40;99.90
5130;DHT22;2583;50.946;6.954;2023-02-11T12:16:18;8.30;99.90
5130;DHT22;2583;50.946;6.954;2023-02-11T12:22:06;8.40;99.90
5130;DHT22;2583;50.946;6.954;2023-02-11T12:27:47;8.30;99.90
5130;DHT22;2583;50.946;6.954;2023-02-11T12:35:58;8.20;99.90
5130;DHT22;2583;50.946;6.954;2023-02-11T12:38:40;8.20;99.90
5130;DHT22;2583;50.946;6.954;2023-02-11T12:41:32;8.30;99.90
5130;DHT22;2583;50.946;6.954;2023-02-11T12:52:55;8.50;99.90
5130;DHT22;2583;50.946;6.954;2023-02-11T12:55:26;8.50;99.90
5130;DHT22;2583;50.946;6.954;2023-02-11T12:57:55;8.50;99.90
5130;DHT22;2583;50.946;6.954;2023-02-11T13:00:30;8.60;99.90
5130;DHT22;2583;50.946;6.954;2023-02-11T13:03:04;8.60;99.90
5130;DHT22;2583;50.946;6.954;2023-02-11T13:11:03;8.60;99.90
5130;DHT22;2583;50.946;6.954;2023-02-11T13:13:46;8.70;99.90
5130;DHT22;2583;50.946;6.954;2023-02-11T13:27:39;8.70;99.90
5130;DHT22;2583;50.946;6.954;2023-02-11T13:30:27;8.80;99.90
5130;DHT22;2583;50.946;6.954;2023-02-11T13:35:36;8.70;99.90
5130;DHT22;2583;50.946;6.954;2023-02-11T13:40:42;8.70;99.90
5130;DHT22;2583;50.946;6.954;2023-02-11T13:43:23;8.80;99.90
5130;DHT22;2583;50.946;6.954;2023-02-11T13:45:52;8.80;99.90
5130;DHT22;2583;50.946;6.954;2023-02-11T13:48:31;8.80;99.90
5130;DHT22;2583;50.946;6.954;2023-02-11T13:51:01;8.90;99.90
5130;DHT22;2583;50.946;6.954;2023-02-11T13:53:29;8.90;99.90
5130;DHT22;2583;50.946;6.954;2023-02-11T13:56:11;8.90;99.90
5130;DHT22;2583;50.946;6.954;2023-02-11T13:58:49;9.00;99.90
5130;DHT22;2583;50.946;6.954;2023-02-11T14:01:39;9.00;99.90
5130;DHT22;2583;50.946;6.954;2023-02-11T14:04:27;9.00;99.90
5130;DHT22;2583;50.946;6.954;2023-02-11T14:07:29;9.10;99.90
5130;DHT22;2583;50.946;6.954;2023-02-11T14:13:29;9.00;99.90
5130;DHT22;2583;50.946;6.954;2023-02-11T14:16:08;8.90;99.90
5130;DHT22;2583;50.946;6.954;2023-02-11T14:18:57;8.90;99.90
5130;DHT22;2583;50.946;6.954;2023-02-11T14:29:01;9.00;99.90
5130;DHT22;2583;50.946;6.954;2023-02-11T14:31:45;9.00;99.90
5130;DHT22;2583;50.946;6.954;2023-02-11T14:37:17;9.00;99.90
5130;DHT22;2583;50.946;6.954;2023-02-11T14:42:38;9.10;99.90
5130;DHT22;2583;50.946;6.954;2023-02-11T14:45:10;9.00;99.90
5130;DHT22;2583;50.946;6.954;2023-02-11T14:53:42;9.20;99.90
5130;DHT22;2583;50.946;6.954;2023-02-11T14:56:36;9.20;99.90
5130;DHT22;2583;50.946;6.954;2023-02-11T14:59:18;9.30;99.90
5130;DHT22;2583;50.946;6.954;2023-02-11T15:01:51;9.40;99.90
5130;DHT22;2583;50.946;6.954;2023-02-11T15:04:32;9.30;99.90
5130;DHT22;2583;50.946;6.954;2023-02-11T15:07:06;9.30;99.90
5130;DHT22;2583;50.946;6.954;2023-02-11T15:09:40;9.40;99.90
5130;DHT22;2583;50.946;6.954;2023-02-11T15:12:25;9.40;99.90
5130;DHT22;2583;50.946;6.954;2023-02-11T15:14:55;9.40;99.90
5130;DHT22;2583;50.946;6.954;2023-02-11T15:17:28;9.30;99.90
5130;DHT22;2583;50.946;6.954;2023-02-11T15:19:59;9.30;99.90
5130;DHT22;2583;50.946;6.954;2023-02-11T15:22:32;9.30;99.90
5130;DHT22;2583;50.946;6.954;2023-02-11T15:25:13;9.40;99.90
5130;DHT22;2583;50.946;6.954;2023-02-11T15:27:46;9.40;99.90
5130;DHT22;2583;50.946;6.954;2023-02-11T15:32:57;9.40;99.90
5130;DHT22;2583;50.946;6.954;2023-02-11T15:35:31;9.50;99.90
5130;DHT22;2583;50.946;6.954;2023-02-11T15:37:58;9.50;99.90
5130;DHT22;2583;50.946;6.954;2023-02-11T15:40:31;9.40;99.90
5130;DHT22;2583;50.946;6.954;2023-02-11T15:43:06;9.40;99.90
5130;DHT22;2583;50.946;6.954;2023-02-11T15:45:41;9.50;99.90
5130;DHT22;2583;50.946;6.954;2023-02-11T15:48:20;9.40;99.90
5130;DHT22;2583;50.946;6.954;2023-02-11T15:50:51;9.40;99.90
5130;DHT22;2583;50.946;6.954;2023-02-11T15:53:29;9.40;99.90
5130;DHT22;2583;50.946;6.954;2023-02-11T15:56:07;9.30;99.90
5130;DHT22;2583;50.946;6.954;2023-02-11T15:58:36;9.40;99.90
5130;DHT22;2583;50.946;6.954;2023-02-11T16:01:04;9.30;99.90
5130;DHT22;2583;50.946;6.954;2023-02-11T16:03:32;9.40;99.90
5130;DHT22;2583;50.946;6.954;2023-02-11T16:06:20;9.30;99.90
5130;DHT22;2583;50.946;6.954;2023-02-11T16:09:23;9.20;99.90
5130;DHT22;2583;50.946;6.954;2023-02-11T16:19:45;9.00;99.90
5130;DHT22;2583;50.946;6.954;2023-02-11T16:22:19;9.00;99.90
5130;DHT22;2583;50.946;6.954;2023-02-11T16:24:49;8.90;99.90
5130;DHT22;2583;50.946;6.954;2023-02-11T16:27:24;8.90;99.90
5130;DHT22;2583;50.946;6.954;2023-02-11T16:29:54;8.90;99.90
5130;DHT22;2583;50.946;6.954;2023-02-11T16:32:25;8.90;99.90
5130;DHT22;2583;50.946;6.954;2023-02-11T16:34:55;8.90;99.90
5130;DHT22;2583;50.946;6.954;2023-02-11T16:37:24;8.90;99.90
5130;DHT22;2583;50.946;6.954;2023-02-11T16:39:56;8.90;99.90
5130;DHT22;2583;50.946;6.954;2023-02-11T16:42:26;8.90;99.90
5130;DHT22;2583;50.946;6.954;2023-02-11T16:44:53;9.00;99.90
5130;DHT22;2583;50.946;6.954;2023-02-11T16:47:25;8.90;99.90
5130;DHT22;2583;50.946;6.954;2023-02-11T16:49:54;8.90;99.90
5130;DHT22;2583;50.946;6.954;2023-02-11T16:52:21;8.90;99.90
5130;DHT22;2583;50.946;6.954;2023-02-11T16:54:49;8.90;99.90
5130;DHT22;2583;50.946;6.954;2023-02-11T16:57:21;9.00;99.90
5130;DHT22;2583;50.946;6.954;2023-02-11T16:59:49;9.00;99.90
5130;DHT22;2583;50.946;6.954;2023-02-11T17:02:28;8.90;99.90
5130;DHT22;2583;50.946;6.954;2023-02-11T17:04:59;9.00;99.90
5130;DHT22;2583;50.946;6.954;2023-02-11T17:07:27;9.00;99.90
5130;DHT22;2583;50.946;6.954;2023-02-11T17:09:54;9.00;99.90
5130;DHT22;2583;50.946;6.954;2023-02-11T17:12:22;9.00;99.90
5130;DHT22;2583;50.946;6.954;2023-02-11T17:14:52;9.00;99.90
5130;DHT22;2583;50.946;6.954;2023-02-11T17:17:20;9.00;99.90
5130;DHT22;2583;50.946;6.954;2023-02-11T17:19:49;9.10;99.90
5130;DHT22;2583;50.946;6.954;2023-02-11T17:22:17;9.00;99.90
5130;DHT22;2583;50.946;6.954;2023-02-11T17:24:44;9.00;99.90
5130;DHT22;2583;50.946;6.954;2023-02-11T17:27:11;9.10;99.90
5130;DHT22;2583;50.946;6.954;2023-02-11T17:29:41;9.10;99.90
5130;DHT22;2583;50.946;6.954;2023-02-11T17:32:08;9.10;99.90
5130;DHT22;2583;50.946;6.954;2023-02-11T17:34:35;9.20;99.90
5130;DHT22;2583;50.946;6.954;2023-02-11T17:37:14;9.10;99.90
5130;DHT22;2583;50.946;6.954;2023-02-11T17:39:41;9.20;99.90
5130;DHT22;2583;50.946;6.954;2023-02-11T17:42:09;9.10;99.90
5130;DHT22;2583;50.946;6.954;2023-02-11T17:44:37;9.10;99.90
5130;DHT22;2583;50.946;6.954;2023-02-11T17:47:04;9.10;99.90
5130;DHT22;2583;50.946;6.954;2023-02-11T17:49:31;9.20;99.90
5130;DHT22;2583;50.946;6.954;2023-02-11T17:51:58;9.10;99.90
5130;DHT22;2583;50.946;6.954;2023-02-11T17:54:25;9.20;99.90
5130;DHT22;2583;50.946;6.954;2023-02-11T17:56:52;9.20;99.90
5130;DHT22;2583;50.946;6.954;2023-02-11T17:59:23;9.10;99.90
5130;DHT22;2583;50.946;6.954;2023-02-11T18:01:51;9.10;99.90
5130;DHT22;2583;50.946;6.954;2023-02-11T18:04:18;9.10;99.90
5130;DHT22;2583;50.946;6.954;2023-02-11T18:06:45;9.20;99.90
5130;DHT22;2583;50.946;6.954;2023-02-11T18:09:12;9.20;99.90
5130;DHT22;2583;50.946;6.954;2023-02-11T18:11:40;9.20;99.90
5130;DHT22;2583;50.946;6.954;2023-02-11T18:14:06;9.30;99.90
5130;DHT22;2583;50.946;6.954;2023-02-11T18:16:34;9.20;99.90
5130;DHT22;2583;50.946;6.954;2023-02-11T18:19:02;9.30;99.90
5130;DHT22;2583;50.946;6.954;2023-02-11T18:21:29;9.20;99.90
5130;DHT22;2583;50.946;6.954;2023-02-11T18:23:57;9.20;99.90
5130;DHT22;2583;50.946;6.954;2023-02-11T18:26:26;9.20;99.90
5130;DHT22;2583;50.946;6.954;2023-02-11T18:28:56;9.20;99.90
5130;DHT22;2583;50.946;6.954;2023-02-11T18:31:24;9.30;99.90
5130;DHT22;2583;50.946;6.954;2023-02-11T18:33:52;9.20;99.90
5130;DHT22;2583;50.946;6.954;2023-02-11T18:36:20;9.20;99.90
5130;DHT22;2583;50.946;6.954;2023-02-11T18:38:47;9.20;99.90
5130;DHT22;2583;50.946;6.954;2023-02-11T18:41:14;9.30;99.90
5130;DHT22;2583;50.946;6.954;2023-02-11T18:43:41;9.20;99.90
5130;DHT22;2583;50.946;6.954;2023-02-11T18:46:11;9.20;99.90
5130;DHT22;2583;50.946;6.954;2023-02-11T18:48:38;9.20;99.90
5130;DHT22;2583;50.946;6.954;2023-02-11T18:51:10;9.20;99.90
5130;DHT22;2583;50.946;6.954;2023-02-11T18:53:38;9.10;99.90
5130;DHT22;2583;50.946;6.954;2023-02-11T18:56:09;9.10;99.90
5130;DHT22;2583;50.946;6.954;2023-02-11T18:58:37;9.10;99.90
5130;DHT22;2583;50.946;6.954;2023-02-11T19:01:18;9.10;99.90
5130;DHT22;2583;50.946;6.954;2023-02-11T19:03:50;9.10;99.90
5130;DHT22;2583;50.946;6.954;2023-02-11T19:06:22;9.10;99.90
5130;DHT22;2583;50.946;6.954;2023-02-11T19:08:53;9.10;99.90
5130;DHT22;2583;50.946;6.954;2023-02-11T19:11:25;9.10;99.90